首页
METAR-TAF:

METAR-TAF

机场 :

Eau Claire, 威斯康辛州, 美国

纬度: 44-51-55N, 经度: 091-29-06W, 海拔: 277米

当前天气观测

该预报发布于18分钟前的21:56 UTC
风速6节,风向多变
温度 25°C
湿度 39%
气压 1018 hPa
能見度: 16.1公里
天空无云

METAR: KEAU 052156Z VRB06KT 10SM CLR 25/10 A3005 RMK AO2 SLP173 T02500100

时间: 17:14 (22:14 UTC)

预报

该预报发布于4小时和39分钟前的17:35 UTC
预报有效从05日的 18点(UTC)到 06日的 18点(UTC)
风速8节,风向西南
能見度: 10公里
散云层高于6000英尺
从 06日的 1200点(UTC)
风速6节,风向南转南东
能見度: 10公里
散云层高于4500英尺
多云层高于7000英尺

TAF: KEAU 051735Z 0518/0618 22008KT P6SM SCT060 FM061200 16006KT P6SM SCT045 BKN070

超过4000个机场的气象观测和天气预报(METAR&TAF报告)。

可查询的气象台以黄色和红色小点在地图上表示。

将鼠标移到小点上方,可查看气象台名称。

然后点击查看天气观测和预报。

如需切换地图:点击带黑十字的绿色按钮放大地图;点击带横线的绿色按钮缩小地图;或者点击绿色箭头查看邻近地区的地图。


METAR-TAF: